Time;durP1;ratioP1;P1;durP2;ratioP2;P2;SDS_P1;SDS_P2;PMS_P1;PMS_P2;Temp;Humidity;BMP_temperature;BMP_pressure;BME280_temperature;BME280_humidity;BME280_pressure;Samples;Min_cycle;Max_cycle;Signal;HPM_P1;HPM_P2
2022/08/14 00:01:22;;;;;;;12.93;11.38;;;20.60;99.90;;;;;;5069832;28;20380;-65
2022/08/14 00:03:48;;;;;;;14.93;11.73;;;20.60;99.90;;;;;;5053487;28;20098;-66
2022/08/14 00:06:13;;;;;;;14.88;11.25;;;20.60;99.90;;;;;;5065996;28;21102;-66
2022/08/14 00:08:39;;;;;;;14.80;11.35;;;20.60;99.90;;;;;;5061117;28;20036;-66
2022/08/14 00:11:05;;;;;;;14.23;11.35;;;20.50;99.90;;;;;;5039112;28;20064;-66
2022/08/14 00:13:31;;;;;;;12.35;10.88;;;20.50;99.90;;;;;;5046940;28;20036;-66
2022/08/14 00:15:58;;;;;;;12.32;10.93;;;20.40;99.90;;;;;;5042922;28;20543;-66
2022/08/14 00:18:27;;;;;;;13.65;10.75;;;20.30;99.90;;;;;;5040731;28;21214;-66
2022/08/14 00:20:54;;;;;;;12.35;10.90;;;20.20;99.90;;;;;;5051699;28;20053;-66
2022/08/14 00:23:20;;;;;;;15.25;11.23;;;20.10;99.90;;;;;;5051439;28;20036;-66
2022/08/14 00:25:49;;;;;;;16.27;11.98;;;20.10;99.90;;;;;;5057347;28;20043;-66
2022/08/14 00:28:15;;;;;;;13.30;11.90;;;20.00;99.90;;;;;;5053393;28;20087;-66
2022/08/14 00:30:41;;;;;;;13.13;11.80;;;19.90;99.90;;;;;;5039321;28;20250;-66
2022/08/14 00:33:07;;;;;;;13.98;11.85;;;19.80;99.90;;;;;;5062179;28;20064;-66
2022/08/14 00:35:34;;;;;;;16.63;12.10;;;19.70;99.90;;;;;;5069413;28;20119;-66
2022/08/14 00:37:59;;;;;;;13.77;12.27;;;19.60;99.90;;;;;;5060203;28;20135;-66
2022/08/14 00:40:25;;;;;;;14.57;12.10;;;19.60;99.90;;;;;;5049269;28;20068;-66
2022/08/14 00:42:51;;;;;;;14.98;12.02;;;19.60;99.90;;;;;;5066942;28;20514;-66
2022/08/14 00:45:17;;;;;;;15.00;11.85;;;19.60;99.90;;;;;;5069877;28;20033;-66
2022/08/14 00:47:45;;;;;;;15.93;12.60;;;19.50;99.90;;;;;;5047660;28;20033;-66
2022/08/14 00:50:16;;;;;;;14.55;12.43;;;19.60;99.90;;;;;;5049492;28;20049;-66
2022/08/14 00:52:42;;;;;;;17.83;12.30;;;19.60;99.90;;;;;;5039234;28;20056;-66
2022/08/14 00:55:08;;;;;;;14.77;12.60;;;19.50;99.90;;;;;;5062453;28;20043;-66
2022/08/14 00:57:35;;;;;;;14.30;12.43;;;19.60;99.90;;;;;;5049777;28;20090;-66
2022/08/14 01:00:11;;;;;;;14.43;11.98;;;19.60;99.90;;;;;;5048853;28;20044;-66
2022/08/14 01:02:39;;;;;;;14.40;11.27;;;19.60;99.90;;;;;;5068488;28;20033;-66
2022/08/14 01:05:06;;;;;;;21.65;12.63;;;19.60;99.90;;;;;;5055384;28;20541;-66
2022/08/14 01:07:32;;;;;;;15.85;11.80;;;19.60;99.90;;;;;;5053208;28;20090;-66
2022/08/14 01:10:00;;;;;;;14.18;12.60;;;19.60;99.90;;;;;;5065363;28;20036;-66
2022/08/14 01:12:27;;;;;;;13.65;12.20;;;19.60;99.90;;;;;;5068820;28;20051;-66
2022/08/14 01:14:54;;;;;;;16.65;12.68;;;19.50;99.90;;;;;;5049065;28;20033;-66
2022/08/14 01:17:21;;;;;;;14.90;12.60;;;19.60;99.90;;;;;;5066354;28;20049;-66
2022/08/14 01:22:32;;;;;;;14.80;12.30;;;19.60;99.90;;;;;;5062561;28;20448;-66
2022/08/14 01:24:58;;;;;;;14.60;12.45;;;19.60;99.90;;;;;;5068719;28;20452;-66
2022/08/14 01:27:24;;;;;;;13.73;12.32;;;19.50;99.90;;;;;;5041333;28;20498;-66
2022/08/14 01:29:53;;;;;;;16.48;12.60;;;19.40;99.90;;;;;;5050995;28;20025;-66
2022/08/14 01:32:20;;;;;;;14.75;12.80;;;19.40;99.90;;;;;;5058703;28;20048;-66
2022/08/14 01:34:54;;;;;;;17.98;12.73;;;19.40;99.90;;;;;;5069053;28;20041;-66
2022/08/14 01:37:24;;;;;;;19.77;12.98;;;19.40;99.90;;;;;;5035755;28;20036;-66
2022/08/14 01:39:53;;;;;;;14.02;12.63;;;19.50;99.90;;;;;;5060734;28;20542;-66
2022/08/14 01:42:19;;;;;;;18.00;13.27;;;19.50;99.90;;;;;;5037427;28;20063;-66
2022/08/14 01:44:50;;;;;;;14.07;12.57;;;19.50;99.90;;;;;;5047587;28;20044;-66
2022/08/14 01:47:17;;;;;;;17.88;13.43;;;19.50;99.90;;;;;;5064476;28;20052;-66
2022/08/14 01:49:43;;;;;;;15.43;13.73;;;19.50;99.90;;;;;;5069048;28;20044;-66
2022/08/14 01:52:09;;;;;;;21.20;13.90;;;19.60;99.90;;;;;;5056030;28;20047;-66
2022/08/14 01:54:35;;;;;;;14.50;13.00;;;19.60;99.90;;;;;;5053154;28;20052;-66
2022/08/14 01:57:01;;;;;;;16.08;13.52;;;19.50;99.90;;;;;;5039776;28;20043;-66
2022/08/14 01:59:31;;;;;;;15.02;13.40;;;19.50;99.90;;;;;;5058411;28;20044;-66
2022/08/14 02:02:11;;;;;;;17.70;13.77;;;19.50;99.90;;;;;;5057639;28;20398;-66
2022/08/14 02:04:38;;;;;;;16.13;12.77;;;19.60;99.90;;;;;;5054213;28;20037;-66
2022/08/14 02:07:05;;;;;;;14.52;12.45;;;19.60;99.90;;;;;;5063215;28;20078;-66
2022/08/14 02:09:34;;;;;;;21.08;13.52;;;19.60;99.90;;;;;;5041151;28;20518;-66
2022/08/14 02:12:04;;;;;;;16.65;13.45;;;19.60;99.90;;;;;;5057393;28;20055;-66
2022/08/14 02:14:30;;;;;;;16.98;13.32;;;19.60;99.90;;;;;;5059608;28;20068;-66
2022/08/14 02:16:56;;;;;;;17.67;13.23;;;19.60;99.90;;;;;;5063761;28;20063;-66
2022/08/14 02:19:26;;;;;;;14.70;13.20;;;19.60;99.90;;;;;;5048427;28;20072;-66
2022/08/14 02:21:54;;;;;;;15.93;13.38;;;19.70;99.90;;;;;;5052865;28;20079;-66
2022/08/14 02:24:22;;;;;;;15.43;13.60;;;19.70;99.90;;;;;;5042809;28;20036;-66
2022/08/14 02:26:50;;;;;;;16.73;12.90;;;19.80;99.90;;;;;;5048552;28;20037;-66
2022/08/14 02:29:21;;;;;;;18.10;13.15;;;19.70;99.90;;;;;;5061890;28;20044;-66
2022/08/14 02:31:53;;;;;;;15.27;13.55;;;19.70;99.90;;;;;;5049828;28;20087;-66
2022/08/14 02:34:28;;;;;;;14.13;12.73;;;19.70;99.90;;;;;;5069010;28;20280;-66
2022/08/14 02:37:01;;;;;;;15.55;13.15;;;19.60;99.90;;;;;;5072186;28;20111;-66
2022/08/14 02:39:27;;;;;;;15.95;14.25;;;19.60;99.90;;;;;;5062279;28;20073;-66
2022/08/14 02:41:53;;;;;;;15.68;13.20;;;19.60;99.90;;;;;;5071667;28;20055;-66
2022/08/14 02:44:21;;;;;;;18.48;13.18;;;19.60;99.90;;;;;;5072012;28;20483;-66
2022/08/14 02:46:48;;;;;;;14.50;13.00;;;19.60;99.90;;;;;;5067960;28;20036;-66
2022/08/14 02:49:15;;;;;;;15.45;13.50;;;19.60;99.90;;;;;;5044893;28;20072;-66
2022/08/14 02:51:40;;;;;;;24.45;14.00;;;19.50;99.90;;;;;;5059474;28;20043;-66
2022/08/14 02:54:08;;;;;;;15.20;13.50;;;19.50;99.90;;;;;;5071889;28;20037;-66
2022/08/14 02:56:37;;;;;;;15.85;13.60;;;19.50;99.90;;;;;;5071723;28;20094;-66
2022/08/14 02:59:05;;;;;;;17.77;14.02;;;19.50;99.90;;;;;;5055392;28;20037;-66
2022/08/14 03:01:32;;;;;;;14.82;13.32;;;19.40;99.90;;;;;;5050652;28;20542;-66
2022/08/14 03:03:58;;;;;;;16.52;13.52;;;19.40;99.90;;;;;;5040867;28;20033;-66
2022/08/14 03:06:24;;;;;;;17.40;14.07;;;19.30;99.90;;;;;;5048109;28;20508;-66
2022/08/14 03:08:52;;;;;;;17.33;13.68;;;19.30;99.90;;;;;;5033333;28;20049;-66
2022/08/14 03:11:20;;;;;;;16.23;14.25;;;19.30;99.90;;;;;;5067646;28;20105;-66
2022/08/14 03:13:50;;;;;;;15.35;13.70;;;19.30;99.90;;;;;;5037851;28;20139;-66
2022/08/14 03:16:18;;;;;;;17.95;12.90;;;19.30;99.90;;;;;;5038972;28;20047;-66
2022/08/14 03:18:45;;;;;;;19.45;14.13;;;19.30;99.90;;;;;;5063485;28;20158;-66
2022/08/14 03:21:15;;;;;;;16.58;13.82;;;19.30;99.90;;;;;;5058047;28;20047;-66
2022/08/14 03:23:43;;;;;;;16.95;13.95;;;19.20;99.90;;;;;;5049328;28;20040;-66
2022/08/14 03:26:11;;;;;;;19.15;14.60;;;19.20;99.90;;;;;;5041181;28;20036;-66
2022/08/14 03:28:39;;;;;;;15.80;13.88;;;19.20;99.90;;;;;;5069915;28;20090;-66
2022/08/14 03:31:05;;;;;;;13.93;12.43;;;19.20;99.90;;;;;;5037261;28;20033;-66
2022/08/14 03:33:31;;;;;;;15.27;13.52;;;19.20;99.90;;;;;;5066932;28;20040;-66
2022/08/14 03:35:58;;;;;;;16.02;12.93;;;19.10;99.90;;;;;;5058780;28;20043;-66
2022/08/14 03:38:24;;;;;;;16.75;12.77;;;19.10;99.90;;;;;;5065781;28;20052;-66
2022/08/14 03:40:49;;;;;;;16.08;13.45;;;19.10;99.90;;;;;;5063698;28;20048;-66
2022/08/14 03:43:15;;;;;;;16.90;13.48;;;19.10;99.90;;;;;;5061026;28;20495;-66
2022/08/14 03:45:43;;;;;;;16.75;13.13;;;19.10;99.90;;;;;;5044049;28;20547;-66
2022/08/14 03:48:18;;;;;;;17.17;12.98;;;19.10;99.90;;;;;;5059318;28;20045;-66
2022/08/14 03:50:53;;;;;;;19.80;13.48;;;19.00;99.90;;;;;;5062394;28;20040;-66
2022/08/14 03:53:19;;;;;;;17.40;12.88;;;19.00;99.90;;;;;;5065338;28;20040;-66
2022/08/14 03:55:46;;;;;;;15.60;12.27;;;18.90;99.90;;;;;;5070713;28;20032;-66
2022/08/14 03:58:12;;;;;;;15.88;13.15;;;18.90;99.90;;;;;;5071215;28;20056;-66
2022/08/14 04:00:39;;;;;;;14.65;11.35;;;18.90;99.90;;;;;;5070470;28;20047;-66
2022/08/14 04:03:08;;;;;;;14.73;11.50;;;18.80;99.90;;;;;;5059238;28;20045;-66
2022/08/14 04:05:37;;;;;;;15.75;11.75;;;18.80;99.90;;;;;;5049454;28;20041;-66
2022/08/14 04:08:04;;;;;;;14.73;11.23;;;18.70;99.90;;;;;;5070911;28;20040;-66
2022/08/14 04:10:30;;;;;;;20.88;11.95;;;18.70;99.90;;;;;;5046436;28;20063;-66
2022/08/14 04:12:58;;;;;;;14.95;12.13;;;18.70;99.90;;;;;;5062849;28;20036;-66
2022/08/14 04:15:25;;;;;;;23.73;13.50;;;18.70;99.90;;;;;;5070768;28;20470;-66
2022/08/14 04:17:52;;;;;;;16.85;12.98;;;18.70;99.90;;;;;;5052876;28;20040;-66
2022/08/14 04:20:19;;;;;;;16.38;12.80;;;18.60;99.90;;;;;;5067625;28;20044;-66
2022/08/14 04:22:44;;;;;;;17.10;11.15;;;18.60;99.90;;;;;;5070239;28;20036;-66
2022/08/14 04:25:10;;;;;;;17.98;10.75;;;18.60;99.90;;;;;;5060317;28;20488;-66
2022/08/14 04:27:37;;;;;;;20.77;11.50;;;18.60;99.90;;;;;;5061498;28;20039;-66
2022/08/14 04:30:06;;;;;;;16.65;10.77;;;18.60;99.90;;;;;;5068241;28;20040;-66
2022/08/14 04:32:32;;;;;;;16.10;11.00;;;18.50;99.90;;;;;;5070087;28;20170;-66
2022/08/14 04:34:59;;;;;;;18.17;11.27;;;18.50;99.90;;;;;;5067106;28;20237;-66
2022/08/14 04:45:39;;;;;;;16.90;11.20;;;18.60;99.90;;;;;;5062449;28;20047;-66
2022/08/14 04:48:13;;;;;;;17.27;11.50;;;18.60;99.90;;;;;;5070058;28;20036;-66
2022/08/14 04:50:47;;;;;;;17.20;11.82;;;18.60;99.90;;;;;;5052723;28;20051;-66
2022/08/14 04:53:15;;;;;;;17.10;11.77;;;18.60;99.90;;;;;;5067368;28;20534;-66
2022/08/14 04:55:46;;;;;;;15.00;11.23;;;18.60;99.90;;;;;;5064841;28;20056;-66
2022/08/14 04:58:25;;;;;;;20.02;12.20;;;18.70;99.90;;;;;;5056933;28;20045;-65
2022/08/14 05:00:52;;;;;;;16.40;11.70;;;18.60;99.90;;;;;;5032751;28;20037;-65
2022/08/14 05:03:19;;;;;;;19.02;15.18;;;18.70;99.90;;;;;;5066801;28;20032;-65
2022/08/14 05:05:56;;;;;;;19.15;12.88;;;18.70;99.90;;;;;;5070384;28;20036;-65
2022/08/14 05:08:23;;;;;;;18.52;14.05;;;18.80;99.90;;;;;;5053119;28;20304;-65
2022/08/14 05:10:52;;;;;;;17.17;13.50;;;18.90;99.90;;;;;;5046267;28;20491;-65
2022/08/14 05:13:22;;;;;;;17.10;14.10;;;18.90;99.90;;;;;;5029793;28;20040;-65
2022/08/14 05:15:51;;;;;;;25.85;15.13;;;18.90;99.90;;;;;;5069816;28;20032;-65
2022/08/14 05:18:20;;;;;;;19.02;15.00;;;19.00;99.90;;;;;;5050652;28;20113;-65
2022/08/14 05:20:50;;;;;;;19.35;14.77;;;19.00;99.90;;;;;;5065251;28;20043;-65
2022/08/14 05:23:22;;;;;;;17.90;14.57;;;19.00;99.90;;;;;;5049885;28;20047;-65
2022/08/14 05:25:54;;;;;;;20.63;14.25;;;19.10;99.90;;;;;;5043016;28;20501;-65
2022/08/14 05:28:22;;;;;;;22.85;14.63;;;19.20;99.90;;;;;;5039628;28;20041;-65
2022/08/14 05:30:54;;;;;;;17.83;13.82;;;19.20;99.90;;;;;;5066729;28;20576;-65
2022/08/14 05:33:23;;;;;;;18.85;14.52;;;19.30;99.90;;;;;;5051604;28;20075;-65
2022/08/14 05:35:51;;;;;;;17.05;14.40;;;19.40;99.90;;;;;;5039194;28;20044;-65
2022/08/14 05:38:21;;;;;;;18.52;14.45;;;19.40;99.90;;;;;;5058791;28;20499;-65
2022/08/14 05:40:48;;;;;;;18.92;14.60;;;19.40;99.90;;;;;;5067208;28;20047;-65
2022/08/14 05:43:14;;;;;;;21.83;14.70;;;19.50;99.90;;;;;;5051473;28;20093;-65
2022/08/14 05:45:41;;;;;;;17.58;14.27;;;19.60;99.90;;;;;;5069699;28;20028;-65
2022/08/14 05:48:13;;;;;;;18.33;14.63;;;19.70;99.90;;;;;;5064368;28;20037;-65
2022/08/14 05:50:39;;;;;;;25.05;14.55;;;19.70;99.90;;;;;;5067761;28;20226;-65
2022/08/14 05:53:04;;;;;;;20.00;14.35;;;19.80;99.90;;;;;;5073624;28;20051;-65
2022/08/14 05:55:31;;;;;;;17.92;14.82;;;19.90;99.90;;;;;;5073094;28;20479;-65
2022/08/14 05:58:03;;;;;;;23.25;15.05;;;19.90;99.90;;;;;;5074043;28;20521;-65
2022/08/14 06:00:32;;;;;;;18.85;14.77;;;20.00;99.90;;;;;;5064692;28;20032;-65
2022/08/14 06:02:58;;;;;;;18.17;15.68;;;20.10;99.90;;;;;;5066277;22;20044;-65
2022/08/14 06:05:25;;;;;;;18.55;14.00;;;20.20;99.90;;;;;;5067150;28;20044;-66
2022/08/14 06:07:51;;;;;;;20.58;14.70;;;20.30;99.90;;;;;;5058718;28;20025;-65
2022/08/14 06:10:17;;;;;;;22.98;13.50;;;20.40;99.90;;;;;;5071838;28;20497;-65
2022/08/14 06:12:42;;;;;;;18.73;13.60;;;20.50;99.90;;;;;;5063329;28;20037;-66
2022/08/14 06:15:09;;;;;;;17.73;14.50;;;20.60;99.90;;;;;;5053564;28;20082;-66
2022/08/14 06:17:52;;;;;;;16.73;13.85;;;20.70;99.90;;;;;;5060875;28;20127;-66
2022/08/14 06:20:19;;;;;;;21.55;13.85;;;20.80;99.90;;;;;;5073465;28;20059;-65
2022/08/14 06:22:46;;;;;;;20.60;14.07;;;20.90;99.90;;;;;;5068741;28;20413;-65
2022/08/14 06:25:13;;;;;;;19.50;14.25;;;20.90;99.90;;;;;;5065367;28;20037;-66
2022/08/14 06:27:44;;;;;;;20.00;13.57;;;21.00;99.90;;;;;;5065069;28;20032;-66
2022/08/14 06:30:18;;;;;;;;;;;21.10;99.90;;;;;;5047842;28;20043;-65
2022/08/14 06:32:44;;;;;;;19.13;13.57;;;21.10;99.90;;;;;;5062282;28;19938;-65
2022/08/14 06:35:12;;;;;;;19.08;14.13;;;21.10;99.90;;;;;;5072076;28;20047;-66
2022/08/14 06:37:52;;;;;;;16.67;13.10;;;21.30;99.90;;;;;;5050270;28;20040;-65
2022/08/14 06:40:21;;;;;;;15.52;12.68;;;21.30;99.90;;;;;;5054247;28;20049;-65
2022/08/14 06:42:48;;;;;;;18.77;13.73;;;21.50;99.90;;;;;;5055287;28;20028;-65
2022/08/14 06:45:13;;;;;;;17.13;14.43;;;21.60;99.90;;;;;;5037689;28;20046;-65
2022/08/14 06:47:41;;;;;;;17.38;12.13;;;21.70;99.90;;;;;;5058216;28;20040;-65
2022/08/14 06:50:11;;;;;;;21.15;14.27;;;21.70;99.90;;;;;;5050715;28;20043;-65
2022/08/14 06:52:38;;;;;;;17.20;13.57;;;21.80;99.90;;;;;;5026714;28;20045;-65
2022/08/14 06:55:05;;;;;;;17.95;12.98;;;21.90;99.90;;;;;;5063315;28;20169;-65
2022/08/14 06:57:39;;;;;;;18.52;9.70;;;22.00;99.90;;;;;;5053741;28;20079;-65
2022/08/14 07:00:26;;;;;;;18.10;11.48;;;22.20;99.90;;;;;;5052691;28;20044;-65
2022/08/14 07:05:45;;;;;;;15.73;10.15;;;22.30;99.90;;;;;;5042498;28;20123;-65
2022/08/14 07:08:35;;;;;;;14.73;9.10;;;22.50;99.90;;;;;;5067461;28;20041;-66
2022/08/14 07:11:03;;;;;;;17.80;9.38;;;22.60;99.90;;;;;;5078622;28;20036;-66
2022/08/14 07:13:28;;;;;;;13.18;9.18;;;22.70;99.90;;;;;;5066541;28;20032;-66
2022/08/14 07:15:56;;;;;;;16.33;9.75;;;22.90;99.90;;;;;;5067674;28;20048;-66
2022/08/14 07:18:29;;;;;;;13.68;9.38;;;23.00;99.90;;;;;;5066448;28;20036;-66
2022/08/14 07:20:57;;;;;;;14.02;9.60;;;23.00;99.90;;;;;;5057939;28;20379;-66
2022/08/14 07:23:24;;;;;;;15.55;9.77;;;23.10;99.90;;;;;;5061370;28;20119;-66
2022/08/14 07:25:52;;;;;;;16.45;9.27;;;23.30;99.90;;;;;;5064572;28;20063;-66
2022/08/14 07:28:22;;;;;;;14.70;10.35;;;23.40;99.90;;;;;;5064343;28;20040;-66
2022/08/14 07:30:49;;;;;;;17.00;10.57;;;23.50;99.90;;;;;;5060927;28;20044;-66
2022/08/14 07:33:15;;;;;;;13.00;10.07;;;23.60;99.90;;;;;;5059244;28;20039;-66
2022/08/14 07:35:41;;;;;;;17.80;10.48;;;23.60;99.90;;;;;;5067691;28;20036;-66
2022/08/14 07:38:07;;;;;;;16.00;11.80;;;23.80;99.90;;;;;;5057700;28;20059;-66
2022/08/14 07:40:33;;;;;;;14.48;10.68;;;23.90;99.90;;;;;;5061047;28;20119;-66
2022/08/14 07:43:00;;;;;;;13.50;10.15;;;24.00;99.90;;;;;;5071093;28;20025;-66
2022/08/14 07:45:27;;;;;;;13.70;10.80;;;24.10;99.90;;;;;;5064262;28;20037;-66
2022/08/14 07:47:56;;;;;;;16.67;10.95;;;24.10;99.90;;;;;;5060715;28;20482;-66
2022/08/14 07:50:23;;;;;;;17.20;11.10;;;24.20;99.90;;;;;;5066661;28;20040;-66
2022/08/14 07:52:49;;;;;;;14.75;10.20;;;24.30;99.90;;;;;;5053210;28;20032;-66
2022/08/14 07:55:16;;;;;;;14.60;11.15;;;24.30;99.90;;;;;;5049562;28;20478;-66
2022/08/14 07:57:44;;;;;;;13.63;11.18;;;24.30;99.90;;;;;;5059055;28;20028;-66
2022/08/14 08:00:12;;;;;;;13.75;10.60;;;24.50;99.90;;;;;;5060601;28;20037;-66
2022/08/14 08:02:43;;;;;;;13.40;10.63;;;24.60;99.90;;;;;;5067337;28;20033;-66
2022/08/14 08:05:10;;;;;;;12.88;11.25;;;24.60;99.90;;;;;;5068040;28;20132;-66
2022/08/14 08:07:37;;;;;;;16.63;10.52;;;24.80;99.90;;;;;;5068345;28;20052;-66
2022/08/14 08:12:55;;;;;;;13.55;11.07;;;24.90;99.90;;;;;;5058101;28;20494;-66
2022/08/14 08:15:23;;;;;;;13.70;11.15;;;25.00;99.90;;;;;;5064761;28;20045;-66
2022/08/14 08:17:50;;;;;;;14.48;11.02;;;25.10;99.90;;;;;;5064573;28;20040;-66
2022/08/14 08:20:18;;;;;;;11.93;9.90;;;25.20;99.90;;;;;;5059287;28;20037;-66
2022/08/14 08:22:49;;;;;;;12.35;10.23;;;25.20;99.90;;;;;;5061162;28;20041;-66
2022/08/14 08:25:16;;;;;;;;;;;25.30;99.90;;;;;;5065688;28;20072;-66
2022/08/14 08:27:41;;;;;;;12.25;9.18;;;25.30;98.90;;;;;;5067497;28;19916;-66
2022/08/14 08:30:09;;;;;;;14.45;9.80;;;25.30;99.90;;;;;;5060060;28;20040;-66
2022/08/14 08:32:42;;;;;;;11.40;9.75;;;25.40;99.80;;;;;;5057993;28;20463;-66
2022/08/14 08:35:22;;;;;;;16.15;9.82;;;25.50;98.80;;;;;;5059132;28;20037;-66
2022/08/14 08:37:50;;;;;;;12.27;9.88;;;25.60;98.60;;;;;;5061734;28;20064;-66
2022/08/14 08:40:36;;;;;;;14.38;9.48;;;25.70;99.60;;;;;;5059967;28;20041;-66
2022/08/14 08:43:05;;;;;;;12.65;9.48;;;25.70;98.90;;;;;;5042848;28;20304;-66
2022/08/14 08:45:33;;;;;;;12.90;9.60;;;25.80;99.40;;;;;;5057251;28;20071;-66
2022/08/14 08:47:59;;;;;;;13.77;9.98;;;25.90;99.40;;;;;;5059561;28;20124;-66
2022/08/14 08:50:35;;;;;;;12.48;10.05;;;26.00;98.70;;;;;;5056981;28;20116;-66
2022/08/14 08:53:04;;;;;;;11.50;10.07;;;26.10;98.30;;;;;;5055188;28;20515;-66
2022/08/14 08:55:39;;;;;;;10.77;9.57;;;26.20;98.00;;;;;;5056288;28;20056;-66
2022/08/14 08:58:07;;;;;;;11.48;9.57;;;26.30;97.10;;;;;;5058562;28;20040;-66
2022/08/14 09:00:34;;;;;;;11.15;9.15;;;26.40;98.10;;;;;;5059575;28;20037;-66
2022/08/14 09:03:02;;;;;;;11.48;8.95;;;26.40;97.80;;;;;;5054302;28;20064;-66
2022/08/14 09:05:29;;;;;;;10.80;9.18;;;26.50;98.00;;;;;;5061748;28;20231;-66
2022/08/14 09:08:14;;;;;;;11.32;8.88;;;26.50;98.10;;;;;;5056290;28;20033;-66
2022/08/14 09:10:40;;;;;;;10.20;8.88;;;26.60;96.90;;;;;;5054768;28;20038;-66
2022/08/14 09:13:06;;;;;;;11.95;9.02;;;26.50;97.50;;;;;;5059083;28;20033;-66
2022/08/14 09:15:32;;;;;;;11.80;9.20;;;26.50;96.80;;;;;;5059062;28;20049;-66
2022/08/14 09:17:59;;;;;;;11.88;9.70;;;26.60;97.90;;;;;;5057680;28;20041;-66
2022/08/14 09:20:25;;;;;;;11.05;9.18;;;26.70;97.40;;;;;;5060357;28;20112;-66
2022/08/14 09:22:52;;;;;;;16.55;9.07;;;26.80;97.50;;;;;;5069502;28;20123;-66
2022/08/14 09:25:18;;;;;;;10.57;6.80;;;26.90;95.70;;;;;;5070225;28;20064;-66
2022/08/14 09:27:44;;;;;;;10.07;6.82;;;27.00;96.50;;;;;;5056588;28;20064;-66
2022/08/14 09:30:10;;;;;;;9.52;6.60;;;27.10;96.90;;;;;;5057784;28;20068;-66
2022/08/14 09:33:04;;;;;;;11.02;7.13;;;27.00;95.50;;;;;;5057798;28;20067;-66
2022/08/14 09:35:51;;;;;;;10.18;6.93;;;27.00;95.50;;;;;;5028656;28;20053;-66
2022/08/14 09:38:34;;;;;;;11.30;7.55;;;26.90;96.30;;;;;;5056098;28;20044;-66
2022/08/14 09:41:12;;;;;;;12.80;7.35;;;27.10;95.40;;;;;;5039947;28;20040;-66
2022/08/14 09:44:02;;;;;;;12.10;6.35;;;27.20;96.50;;;;;;5054573;28;20037;-66
2022/08/14 09:46:28;;;;;;;13.73;6.93;;;27.20;94.40;;;;;;5039940;28;20052;-66
2022/08/14 09:49:03;;;;;;;10.07;6.82;;;27.20;95.60;;;;;;5057764;28;20037;-66
2022/08/14 09:51:29;;;;;;;10.85;6.97;;;27.30;95.50;;;;;;5053865;28;20075;-66
2022/08/14 09:54:10;;;;;;;10.00;6.93;;;27.50;95.30;;;;;;5060285;28;20067;-66
2022/08/14 09:56:46;;;;;;;13.05;7.00;;;27.40;94.10;;;;;;5057058;28;20039;-66
2022/08/14 09:59:16;;;;;;;9.98;6.90;;;27.50;95.20;;;;;;5060214;28;20037;-66
2022/08/14 10:01:43;;;;;;;11.02;7.22;;;27.50;94.70;;;;;;5056612;28;20059;-66
2022/08/14 10:04:24;;;;;;;12.43;7.57;;;27.70;95.90;;;;;;5069491;28;20071;-66
2022/08/14 10:06:50;;;;;;;8.82;7.13;;;27.80;94.70;;;;;;5069665;28;20045;-66
2022/08/14 10:09:17;;;;;;;17.30;8.10;;;28.10;94.40;;;;;;5059931;28;20041;-66
2022/08/14 10:11:55;;;;;;;12.65;8.00;;;28.20;95.10;;;;;;5046579;28;20044;-66
2022/08/14 10:14:24;;;;;;;10.13;7.90;;;28.30;94.90;;;;;;5061786;28;20044;-66
2022/08/14 10:16:53;;;;;;;17.77;7.63;;;28.40;95.00;;;;;;5062302;28;20036;-66
2022/08/14 10:19:20;;;;;;;10.43;7.72;;;28.40;95.20;;;;;;5068099;28;20128;-66
2022/08/14 10:22:01;;;;;;;11.50;7.45;;;28.40;94.00;;;;;;5070870;28;20033;-66
2022/08/14 10:24:32;;;;;;;;;;;28.40;93.20;;;;;;5055922;28;20036;-66
2022/08/14 10:27:01;;;;;;;12.38;8.43;;;28.60;92.80;;;;;;5061713;28;20411;-66
2022/08/14 10:29:36;;;;;;;12.52;8.70;;;28.70;93.60;;;;;;5071075;28;20090;-66
2022/08/14 10:32:03;;;;;;;12.77;8.43;;;28.80;93.10;;;;;;5073367;28;20087;-66
2022/08/14 10:34:38;;;;;;;11.07;8.27;;;28.90;93.70;;;;;;5060587;28;20048;-66
2022/08/14 10:37:12;;;;;;;10.32;7.80;;;28.80;92.50;;;;;;5072848;28;20036;-66
2022/08/14 10:39:39;;;;;;;10.50;7.60;;;28.90;91.50;;;;;;5073032;28;20032;-66
2022/08/14 10:42:11;;;;;;;11.88;7.43;;;28.80;91.70;;;;;;5061823;28;20028;-66
2022/08/14 10:44:46;;;;;;;10.60;7.75;;;28.90;91.60;;;;;;5064805;28;20046;-66
2022/08/14 10:47:13;;;;;;;11.02;7.30;;;29.00;92.70;;;;;;5073066;28;20043;-66
2022/08/14 10:49:54;;;;;;;11.98;8.02;;;29.00;91.70;;;;;;5065659;28;20036;-66
2022/08/14 10:52:26;;;;;;;9.38;7.57;;;29.20;92.20;;;;;;5061599;28;20044;-66
2022/08/14 10:55:06;;;;;;;10.93;7.60;;;29.30;90.70;;;;;;5071921;28;20048;-66
2022/08/14 10:57:34;;;;;;;11.23;8.82;;;29.40;91.20;;;;;;5077576;28;20049;-66
2022/08/14 11:00:12;;;;;;;11.02;8.35;;;29.60;92.40;;;;;;5092737;28;20440;-66
2022/08/14 11:02:39;;;;;;;13.10;8.65;;;29.70;91.60;;;;;;5092803;28;20032;-66
2022/08/14 11:05:06;;;;;;;12.25;8.30;;;29.80;90.90;;;;;;5085925;28;20111;-66
2022/08/14 11:07:38;;;;;;;10.05;7.65;;;29.80;91.40;;;;;;5048940;28;20106;-66
2022/08/14 11:10:10;;;;;;;10.68;7.53;;;29.70;90.00;;;;;;5067129;28;20032;-66
2022/08/14 11:12:46;;;;;;;10.65;7.85;;;29.90;89.30;;;;;;5072185;28;20376;-66
2022/08/14 11:15:17;;;;;;;12.68;7.75;;;30.00;87.70;;;;;;5054340;28;20170;-66
2022/08/14 11:17:45;;;;;;;10.20;6.97;;;30.10;90.50;;;;;;5065532;28;21135;-66
2022/08/14 11:20:13;;;;;;;9.68;7.20;;;30.00;89.80;;;;;;5068507;28;20032;-66
2022/08/14 11:22:41;;;;;;;8.80;7.35;;;30.00;87.40;;;;;;5050595;28;20112;-66
2022/08/14 11:25:09;;;;;;;14.00;7.43;;;30.10;89.40;;;;;;5045381;28;20052;-67
2022/08/14 11:27:38;;;;;;;8.55;6.18;;;30.20;88.10;;;;;;5071841;28;20040;-66
2022/08/14 11:30:07;;;;;;;10.02;6.78;;;30.20;82.30;;;;;;5072029;28;20064;-67
2022/08/14 11:32:33;;;;;;;8.60;5.78;;;30.40;84.20;;;;;;5045807;28;20055;-66
2022/08/14 11:35:02;;;;;;;11.00;7.75;;;30.50;86.90;;;;;;5058479;28;20047;-66
2022/08/14 11:37:32;;;;;;;9.77;7.72;;;30.70;85.80;;;;;;5055796;28;20047;-67
2022/08/14 11:39:59;;;;;;;10.43;7.30;;;30.80;86.80;;;;;;5041900;28;20430;-66
2022/08/14 11:42:26;;;;;;;12.52;7.75;;;30.70;85.80;;;;;;5056199;28;20137;-67
2022/08/14 11:44:55;;;;;;;8.18;7.38;;;30.80;83.20;;;;;;5071464;28;20040;-66
2022/08/14 11:47:21;;;;;;;10.57;7.93;;;30.80;81.50;;;;;;5072183;28;20045;-67
2022/08/14 11:49:48;;;;;;;10.20;7.53;;;30.80;83.30;;;;;;5053609;28;20032;-67
2022/08/14 11:52:14;;;;;;;9.63;8.25;;;30.70;82.90;;;;;;5077700;28;20068;-67
2022/08/14 11:54:41;;;;;;;9.32;8.13;;;30.50;83.00;;;;;;5049462;28;20041;-66
2022/08/14 11:57:15;;;;;;;10.75;8.60;;;30.10;83.40;;;;;;5060555;28;20031;-66
2022/08/14 11:59:41;;;;;;;8.57;6.93;;;30.10;82.60;;;;;;5063818;28;20058;-67
2022/08/14 12:02:15;;;;;;;9.27;6.93;;;30.40;82.60;;;;;;5067172;28;20402;-66
2022/08/14 12:04:49;;;;;;;8.35;7.43;;;30.60;80.00;;;;;;5040276;28;20625;-67
2022/08/14 12:07:15;;;;;;;8.90;6.78;;;30.50;77.90;;;;;;5098304;22;20128;-64
2022/08/14 12:09:40;;;;;;;9.57;7.70;;;30.50;81.30;;;;;;5064791;28;20066;-64
2022/08/14 12:12:32;;;;;;;8.60;7.35;;;30.80;81.70;;;;;;5053237;28;20079;-64
2022/08/14 12:14:59;;;;;;;7.93;6.88;;;31.10;76.70;;;;;;5061866;28;20048;-64
2022/08/14 12:17:32;;;;;;;8.45;7.50;;;31.10;76.90;;;;;;5079321;28;20033;-64
2022/08/14 12:20:00;;;;;;;11.45;6.85;;;31.20;77.30;;;;;;5053663;28;20096;-65
2022/08/14 12:22:32;;;;;;;9.18;7.22;;;31.40;75.10;;;;;;5070195;28;20047;-65
2022/08/14 12:24:58;;;;;;;8.88;6.47;;;31.70;77.40;;;;;;5091301;28;20542;-65
2022/08/14 12:27:42;;;;;;;8.95;6.60;;;31.60;74.00;;;;;;5085140;28;20093;-64
2022/08/14 12:30:12;;;;;;;8.52;6.20;;;31.60;73.00;;;;;;5053595;28;20043;-64
2022/08/14 12:32:39;;;;;;;8.32;6.70;;;31.80;76.50;;;;;;5069493;28;20043;-64
2022/08/14 12:35:05;;;;;;;14.57;7.00;;;32.00;75.20;;;;;;5070706;28;20040;-64
2022/08/14 12:37:31;;;;;;;8.82;6.40;;;32.10;75.70;;;;;;5067410;28;20070;-64
2022/08/14 12:40:11;;;;;;;7.60;6.18;;;32.00;72.10;;;;;;5055690;28;20533;-65
2022/08/14 12:42:37;;;;;;;10.50;6.45;;;31.80;69.20;;;;;;5051974;28;20040;-65
2022/08/14 12:45:04;;;;;;;6.82;5.60;;;32.10;70.20;;;;;;5052267;28;20158;-64
2022/08/14 12:47:30;;;;;;;7.53;6.15;;;32.20;70.40;;;;;;5058211;28;20041;-64
2022/08/14 12:49:56;;;;;;;7.57;5.65;;;32.20;71.00;;;;;;5068998;28;20047;-65
2022/08/14 12:52:33;;;;;;;6.78;5.78;;;32.40;71.90;;;;;;5070312;28;20234;-65
2022/08/14 12:55:02;;;;;;;9.18;6.22;;;32.50;67.80;;;;;;5054610;28;20047;-64
2022/08/14 12:57:38;;;;;;;6.70;5.63;;;32.60;69.70;;;;;;5067237;28;20068;-65
2022/08/14 13:00:17;;;;;;;8.82;6.32;;;32.70;67.60;;;;;;5073271;28;20079;-65